Triumph II — WY6769 — position and weather

sailwx.info

Track history (hours):
 
Tides and Currents Weather Stations Pressure Air Temp Water Temp Dewpoint Dewpoint Depression Visibility Wind Speed Wind Dir Waves Ship Positions

Triumph II

Owner: ANCHORAGE LAUNCH SERVICE CO, PORTLAND, OR. More information available from US FCC via Universal Licensing System.

Last reported at 2018-Jun-23 04:16 UTC. Time now 2018-Jun-23 04:44 UTC.
Position N 46°12' W 123°48'.

Length 19 m.

Type: Passenger vessel. MMSI: 366970430.

Date/timePositionNaut miles runAvg speedWind from/ knotsBaromVisibWave heightAir tempDewpointWater temp
2018-Jun-23 04:16N 46°12' W 123°48'0 0.0
2018-Jun-23 03:55N 46°12' W 123°48'0 0.0
2018-Jun-23 03:28N 46°12' W 123°48'0 0.0
2018-Jun-23 02:43N 46°12' W 123°48'0 0.0
2018-Jun-23 02:28N 46°12' W 123°48'1 2.6
2018-Jun-23 02:01N 46°13' W 123°47'0 0.0
2018-Jun-23 01:30N 46°13' W 123°47'1 2.4
2018-Jun-23 00:58N 46°12' W 123°46'0 0.0
2018-Jun-23 00:28N 46°12' W 123°46'3 5.8
2018-Jun-23 00:01N 46°11' W 123°49'2 3.5
2018-Jun-22 23:30N 46°12' W 123°47'0 0.1
2018-Jun-22 23:00N 46°12' W 123°47'0 0.0
2018-Jun-22 22:30N 46°12' W 123°47'2 3.5
2018-Jun-22 21:58N 46°11' W 123°50'1 2.0
2018-Jun-22 21:28N 46°12' W 123°48'0 0.0
2018-Jun-22 20:58N 46°12' W 123°48'0 0.0
2018-Jun-22 20:28N 46°12' W 123°48'0 0.0
2018-Jun-22 19:58N 46°12' W 123°48'0 0.0
2018-Jun-22 19:28N 46°12' W 123°48'0 0.0
2018-Jun-22 18:58N 46°12' W 123°48'0 0.0
2018-Jun-22 18:28N 46°12' W 123°48'0 0.7
2018-Jun-22 18:00N 46°12' W 123°48'0 0.2
2018-Jun-22 17:28N 46°12' W 123°48'0 0.0
2018-Jun-22 16:58N 46°12' W 123°48'0 0.0
2018-Jun-22 16:30N 46°12' W 123°48'1 2.9
2018-Jun-22 16:00N 46°11' W 123°50'0 0.0
2018-Jun-22 15:30N 46°11' W 123°50'0 0.1
2018-Jun-22 15:00N 46°11' W 123°49'1 1.7
2018-Jun-22 14:28N 46°12' W 123°48'0 0.0
2018-Jun-22 13:58N 46°12' W 123°48'0 0.0
2018-Jun-22 13:28N 46°12' W 123°48'0 0.0
2018-Jun-22 12:58N 46°12' W 123°48'0 0.0
2018-Jun-22 12:26N 46°12' W 123°48'0 0.0
2018-Jun-22 11:58N 46°12' W 123°48'0 0.0
2018-Jun-22 11:28N 46°12' W 123°48'0 0.0
2018-Jun-22 10:58N 46°12' W 123°48'0 0.0
2018-Jun-22 10:28N 46°12' W 123°48'0 0.0
2018-Jun-22 09:58N 46°12' W 123°48'0 0.0
2018-Jun-22 09:28N 46°12' W 123°48'0 0.0
2018-Jun-22 08:58N 46°12' W 123°48'0 0.0
2018-Jun-22 08:22N 46°12' W 123°48'0 0.0
2018-Jun-22 07:58N 46°12' W 123°48'0 0.0
2018-Jun-22 07:28N 46°12' W 123°48'0 0.0
2018-Jun-22 06:58N 46°12' W 123°48'0 0.0
2018-Jun-22 06:28N 46°12' W 123°48'0 0.0
2018-Jun-22 05:43N 46°12' W 123°48'0 0.0
2018-Jun-22 05:28N 46°12' W 123°48'0 0.0
2018-Jun-22 04:58N 46°12' W 123°48'0 0.0
2018-Jun-22 04:28N 46°12' W 123°48'0 0.0
2018-Jun-22 03:58N 46°12' W 123°48'0 0.0
2018-Jun-22 03:28N 46°12' W 123°48'2 4.2
2018-Jun-22 03:00N 46°13' W 123°46'2 3.1
2018-Jun-22 02:28N 46°14' W 123°44'4 7.0
2018-Jun-22 01:58N 46°12' W 123°48'0 0.0
2018-Jun-22 01:28N 46°12' W 123°48'0 0.0
2018-Jun-22 00:58N 46°12' W 123°48'0 0.0
2018-Jun-22 00:28N 46°12' W 123°48'0 0.0
2018-Jun-21 23:58N 46°12' W 123°48'0 0.0
2018-Jun-21 23:28N 46°12' W 123°48'0 0.0
2018-Jun-21 22:58N 46°12' W 123°48'0 0.0
2018-Jun-21 22:28N 46°12' W 123°48'0 0.0
2018-Jun-21 21:58N 46°12' W 123°48'0 0.0
2018-Jun-21 21:28N 46°12' W 123°48'0 0.0
2018-Jun-21 20:58N 46°12' W 123°48'0 0.0
2018-Jun-21 20:28N 46°12' W 123°48'0 0.0
2018-Jun-21 19:37N 46°12' W 123°48'0 0.0
2018-Jun-21 19:28N 46°12' W 123°48'0 0.0
2018-Jun-21 18:58N 46°12' W 123°48'0 0.0
2018-Jun-21 18:28N 46°12' W 123°48'0 0.0
2018-Jun-21 17:58N 46°12' W 123°48'0 0.0
2018-Jun-21 17:28N 46°12' W 123°48'0 0.0
2018-Jun-21 16:58N 46°12' W 123°48'0 0.0
2018-Jun-21 16:28N 46°12' W 123°48'0 0.0
2018-Jun-21 15:58N 46°12' W 123°48'0 0.0
2018-Jun-21 15:28N 46°12' W 123°48'0 0.0
2018-Jun-21 14:58N 46°12' W 123°48'0 0.0
2018-Jun-21 14:28N 46°12' W 123°48'0 0.0
2018-Jun-21 13:58N 46°12' W 123°48'0 0.0
2018-Jun-21 13:28N 46°12' W 123°48'0 0.0
2018-Jun-21 12:58N 46°12' W 123°48'0 0.0
2018-Jun-21 12:28N 46°12' W 123°48'0 0.0
2018-Jun-21 11:43N 46°12' W 123°48'0 0.0
2018-Jun-21 11:28N 46°12' W 123°48'0 0.0
2018-Jun-21 10:58N 46°12' W 123°48'0 0.0
2018-Jun-21 10:28N 46°12' W 123°48'0 0.0
2018-Jun-21 09:58N 46°12' W 123°48'0 0.0
2018-Jun-21 09:28N 46°12' W 123°48'0 0.0
2018-Jun-21 08:49N 46°12' W 123°48'0 0.0
2018-Jun-21 08:28N 46°12' W 123°48'0 0.0
2018-Jun-21 07:58N 46°12' W 123°48'0 0.0
2018-Jun-21 07:28N 46°12' W 123°48'0 0.0
2018-Jun-21 06:58N 46°12' W 123°48'0 0.0
2018-Jun-21 06:28N 46°12' W 123°48'0 0.0
2018-Jun-21 05:46N 46°12' W 123°48'0 0.0
2018-Jun-21 05:28N 46°12' W 123°48'0 0.0
2018-Jun-21 04:58N 46°12' W 123°48'0 0.0
2018-Jun-21 04:28N 46°12' W 123°48'0 0.0
2018-Jun-21 03:58N 46°12' W 123°48'0 0.0
2018-Jun-21 01:49N 46°12' W 123°48'0 0.0
2018-Jun-21 00:40N 46°12' W 123°48'0 0.0
2018-Jun-21 00:11N 46°12' W 123°48'0 0.0
2018-Jun-20 23:46N 46°12' W 123°48'0 0.0
2018-Jun-20 23:19N 46°12' W 123°48'0 0.0
2018-Jun-20 22:49N 46°12' W 123°48'0 0.0
2018-Jun-20 22:22N 46°12' W 123°48'0 0.0
2018-Jun-20 21:55N 46°12' W 123°48'0 0.0
2018-Jun-20 21:28N 46°12' W 123°48'0 0.0
2018-Jun-20 20:34N 46°12' W 123°48'0 0.0
2018-Jun-20 20:22N 46°12' W 123°48'0 0.0
2018-Jun-20 19:49N 46°12' W 123°48'0 0.0
2018-Jun-20 19:13N 46°12' W 123°48'0 0.0
2018-Jun-20 18:55N 46°12' W 123°48'0 0.0
2018-Jun-20 18:07N 46°12' W 123°48'0 0.0
2018-Jun-20 17:55N 46°12' W 123°48'0 0.0
2018-Jun-20 17:20N 46°12' W 123°48'0 0.0
2018-Jun-20 16:58N 46°12' W 123°48'1 1.5
2018-Jun-20 16:13N 46°12' W 123°50'0 0.1
2018-Jun-20 15:36N 46°12' W 123°50'1 2.5
2018-Jun-20 15:23N 46°11' W 123°50'0 0.0
2018-Jun-20 14:13N 46°11' W 123°50'0 0.0
2018-Jun-20 13:58N 46°11' W 123°50'1 2.2
2018-Jun-20 13:30N 46°12' W 123°48'0 0.0
2018-Jun-20 12:02N 46°12' W 123°48'0 0.0
2018-Jun-20 11:59N 46°12' W 123°48'0 0.0
2018-Jun-20 11:24N 46°12' W 123°48'0 0.0
2018-Jun-20 10:20N 46°12' W 123°48'0 0.0
2018-Jun-20 09:56N 46°12' W 123°48'0 0.0
2018-Jun-20 09:29N 46°12' W 123°48'0 0.0
2018-Jun-20 08:59N 46°12' W 123°48'0 0.0
2018-Jun-20 08:29N 46°12' W 123°48'0 0.0
2018-Jun-20 07:59N 46°12' W 123°48'0 0.0
2018-Jun-20 07:29N 46°12' W 123°48'0 0.0
2018-Jun-20 06:59N 46°12' W 123°48'0 0.0
2018-Jun-20 05:35N 46°12' W 123°48'0 0.1
2018-Jun-20 05:29N 46°12' W 123°48'0 0.0
2018-Jun-20 04:56N 46°12' W 123°48'0 0.0
2018-Jun-20 04:29N 46°12' W 123°48'0 0.0
2018-Jun-20 03:59N 46°12' W 123°48'0 0.0
2018-Jun-20 02:59N 46°12' W 123°48'0 0.0
2018-Jun-20 02:29N 46°12' W 123°48'0 0.0
2018-Jun-20 01:59N 46°12' W 123°48'0 0.0
2018-Jun-20 01:29N 46°12' W 123°48'0 0.0
2018-Jun-20 00:59N 46°12' W 123°48'0 0.0
2018-Jun-20 00:17N 46°12' W 123°48'0 0.0
2018-Jun-19 23:59N 46°12' W 123°48'0 0.0
2018-Jun-19 23:29N 46°12' W 123°48'0 0.0
2018-Jun-19 22:59N 46°12' W 123°48'0 0.0
2018-Jun-19 22:29N 46°12' W 123°48'0 0.0
2018-Jun-19 21:59N 46°12' W 123°48'0 0.0
2018-Jun-19 21:08N 46°12' W 123°48'0 0.0
2018-Jun-19 20:53N 46°12' W 123°48'0 0.0
2018-Jun-19 20:29N 46°12' W 123°48'1 1.2
2018-Jun-19 19:58N 46°12' W 123°49'1 1.8
2018-Jun-19 19:30N 46°12' W 123°49'1 1.6
2018-Jun-19 18:58N 46°12' W 123°49'0 0.0
2018-Jun-19 18:29N 46°12' W 123°49'1 1.6
2018-Jun-19 17:45N 46°11' W 123°50'1 3.8
2018-Jun-19 17:29N 46°12' W 123°48'0 0.0
2018-Jun-19 16:59N 46°12' W 123°48'0 0.0
2018-Jun-19 16:05N 46°12' W 123°48'0 0.0
2018-Jun-19 15:59N 46°12' W 123°48'0 0.0
2018-Jun-19 15:14N 46°12' W 123°48'0 0.0
2018-Jun-19 14:59N 46°12' W 123°48'0 0.0
2018-Jun-19 14:20N 46°12' W 123°48'0 0.0
2018-Jun-19 13:59N 46°12' W 123°48'0 0.0
2018-Jun-19 13:29N 46°12' W 123°48'0 0.0
2018-Jun-19 12:59N 46°12' W 123°48'0 0.0
2018-Jun-19 12:29N 46°12' W 123°48'0 0.0
2018-Jun-19 11:59N 46°12' W 123°48'0 0.0
2018-Jun-19 11:26N 46°12' W 123°48'0 0.0
2018-Jun-19 10:59N 46°12' W 123°48'0 0.0
2018-Jun-19 10:29N 46°12' W 123°48'0 0.0
2018-Jun-19 09:59N 46°12' W 123°48'0 0.0
2018-Jun-19 09:29N 46°12' W 123°48'0 0.0
2018-Jun-19 08:56N 46°12' W 123°48'0 0.0
2018-Jun-19 08:29N 46°12' W 123°48'0 0.0
2018-Jun-19 07:56N 46°12' W 123°48'0 0.0
2018-Jun-19 07:29N 46°12' W 123°48'0 0.0
2018-Jun-19 06:56N 46°12' W 123°48'0 0.0
2018-Jun-19 06:29N 46°12' W 123°48'0 0.0
2018-Jun-19 05:59N 46°12' W 123°48'0 0.0
2018-Jun-19 05:29N 46°12' W 123°48'0 0.0
2018-Jun-19 04:59N 46°12' W 123°48'0 0.0
2018-Jun-19 04:29N 46°12' W 123°48'0 0.0
2018-Jun-19 03:59N 46°12' W 123°48'0 0.0
2018-Jun-19 03:29N 46°12' W 123°48'0 0.0
2018-Jun-19 02:56N 46°12' W 123°48'0 0.0
2018-Jun-19 02:29N 46°12' W 123°48'0 0.0
2018-Jun-19 01:59N 46°12' W 123°48'0 0.0
2018-Jun-19 01:29N 46°12' W 123°48'0 0.0
2018-Jun-19 00:59N 46°12' W 123°48'0 0.0
2018-Jun-19 00:29N 46°12' W 123°48'0 0.0
2018-Jun-18 23:59N 46°12' W 123°48'0 0.0
2018-Jun-18 23:27N 46°12' W 123°48'0 0.0
2018-Jun-18 22:59N 46°12' W 123°48'0 0.0
2018-Jun-18 22:29N 46°12' W 123°48'0 0.0
2018-Jun-18 21:59N 46°12' W 123°48'0 0.0
2018-Jun-18 21:29N 46°12' W 123°48'0 0.0
2018-Jun-18 20:50N 46°12' W 123°48'0 0.0
2018-Jun-18 20:29N 46°12' W 123°48'0 0.0
2018-Jun-18 19:59N 46°12' W 123°48'0 0.0
2018-Jun-18 19:29N 46°12' W 123°48'0 0.0
2018-Jun-18 18:59N 46°12' W 123°48'0 0.0
2018-Jun-18 18:23N 46°12' W 123°48'0 0.0
2018-Jun-18 17:54N 46°12' W 123°48'1 2.1
2018-Jun-18 17:21N 46°11' W 123°50'515.3
2018-Jun-18 17:00N 46°14' W 123°43'0 0.4
2018-Jun-18 16:28N 46°14' W 123°43'510.8
2018-Jun-18 15:58N 46°11' W 123°50'1 2.0
2018-Jun-18 15:28N 46°12' W 123°48'0 0.0
2018-Jun-18 14:58N 46°12' W 123°48'0 0.0
2018-Jun-18 14:28N 46°12' W 123°48'0 0.0
2018-Jun-18 13:58N 46°12' W 123°48'0 0.0
2018-Jun-18 13:28N 46°12' W 123°48'0 0.0
2018-Jun-18 12:58N 46°12' W 123°48'0 0.0
2018-Jun-18 12:28N 46°12' W 123°48'0 0.0
2018-Jun-18 11:58N 46°12' W 123°48'0 0.0
2018-Jun-18 11:28N 46°12' W 123°48'0 0.0
2018-Jun-18 10:58N 46°12' W 123°48'0 0.0
2018-Jun-18 10:28N 46°12' W 123°48'0 0.0
2018-Jun-18 09:58N 46°12' W 123°48'0 0.0
2018-Jun-18 09:20N 46°12' W 123°48'0 0.0
2018-Jun-18 08:58N 46°12' W 123°48'0 0.0
2018-Jun-18 08:28N 46°12' W 123°48'0 0.0
2018-Jun-18 07:58N 46°12' W 123°48'0 0.0
2018-Jun-18 07:28N 46°12' W 123°48'0 0.0
2018-Jun-18 06:58N 46°12' W 123°48'0 0.0
2018-Jun-18 06:28N 46°12' W 123°48'0 0.0
2018-Jun-18 05:55N 46°12' W 123°48'0 0.0
2018-Jun-18 05:28N 46°12' W 123°48'0 0.0
2018-Jun-18 04:55N 46°12' W 123°48'0 0.0
2018-Jun-18 04:25N 46°12' W 123°48'0 0.0
2018-Jun-18 03:58N 46°12' W 123°48'0 0.0
2018-Jun-18 03:28N 46°12' W 123°48'0 0.0
2018-Jun-18 02:58N 46°12' W 123°48'0 0.0
2018-Jun-18 02:01N 46°12' W 123°48'0 0.0
2018-Jun-18 01:43N 46°12' W 123°48'0 0.0
2018-Jun-18 01:28N 46°12' W 123°48'0 0.0
2018-Jun-18 00:58N 46°12' W 123°48'0 0.0
2018-Jun-18 00:28N 46°12' W 123°48'0 0.0
2018-Jun-17 23:58N 46°12' W 123°48'0 0.0
2018-Jun-17 23:28N 46°12' W 123°48'0 0.0
2018-Jun-17 22:46N 46°12' W 123°48'0 0.0
2018-Jun-17 22:29N 46°12' W 123°48'0 0.0
2018-Jun-17 21:59N 46°12' W 123°48'0 0.0
2018-Jun-17 20:16N 46°12' W 123°48'0 0.0
2018-Jun-17 19:59N 46°12' W 123°48'0 0.0
2018-Jun-17 19:28N 46°12' W 123°48'0 0.0
2018-Jun-17 18:59N 46°12' W 123°48'0 0.0
2018-Jun-17 18:29N 46°12' W 123°48'0 0.0
2018-Jun-17 17:59N 46°12' W 123°48'0 0.0
2018-Jun-17 17:28N 46°12' W 123°48'0 0.0
2018-Jun-17 16:59N 46°12' W 123°48'0 0.0
2018-Jun-17 16:26N 46°12' W 123°48'0 0.0
2018-Jun-17 15:56N 46°12' W 123°48'0 0.0
2018-Jun-17 15:26N 46°12' W 123°48'0 0.0
2018-Jun-17 14:59N 46°12' W 123°48'0 0.0
2018-Jun-17 14:28N 46°12' W 123°48'0 0.0
2018-Jun-17 13:59N 46°12' W 123°48'0 0.0
2018-Jun-17 13:29N 46°12' W 123°48'0 0.0
2018-Jun-17 12:59N 46°12' W 123°48'0 0.0
2018-Jun-17 12:28N 46°12' W 123°48'0 0.0
2018-Jun-17 11:59N 46°12' W 123°48'0 0.0
2018-Jun-17 11:29N 46°12' W 123°48'0 0.0
2018-Jun-17 10:59N 46°12' W 123°48'0 0.0
2018-Jun-17 10:29N 46°12' W 123°48'0 0.0
2018-Jun-17 09:44N 46°12' W 123°48'0 0.0
2018-Jun-17 09:29N 46°12' W 123°48'0 0.0
2018-Jun-17 08:59N 46°12' W 123°48'0 0.0
2018-Jun-17 08:29N 46°12' W 123°48'0 0.0
2018-Jun-17 07:59N 46°12' W 123°48'0 0.0
2018-Jun-17 07:29N 46°12' W 123°48'0 0.0
2018-Jun-17 06:59N 46°12' W 123°48'0 0.0
2018-Jun-17 06:29N 46°12' W 123°48'0 0.0
2018-Jun-17 05:59N 46°12' W 123°48'0 0.0
2018-Jun-17 05:26N 46°12' W 123°48'0 0.0
2018-Jun-17 04:59N 46°12' W 123°48'0 0.0
2018-Jun-17 04:29N 46°12' W 123°48'0 0.0
2018-Jun-17 03:59N 46°12' W 123°48'0 0.0
2018-Jun-17 03:26N 46°12' W 123°48'0 0.0
2018-Jun-17 02:59N 46°12' W 123°48'0 0.0
2018-Jun-17 02:29N 46°12' W 123°48'0 0.0
2018-Jun-17 01:57N 46°12' W 123°48'0 0.0
2018-Jun-17 01:30N 46°12' W 123°48'0 0.0
2018-Jun-17 01:00N 46°12' W 123°48'0 0.0
2018-Jun-17 00:28N 46°12' W 123°48'0 0.0
2018-Jun-16 23:58N 46°12' W 123°48'0 0.0
2018-Jun-16 23:28N 46°12' W 123°48'0 0.0
2018-Jun-16 22:58N 46°12' W 123°48'0 0.0
2018-Jun-16 22:28N 46°12' W 123°48'0 0.0
2018-Jun-16 21:58N 46°12' W 123°48'0 0.0
2018-Jun-16 21:28N 46°12' W 123°48'1 2.1
2018-Jun-16 20:59N 46°11' W 123°50'0 0.1
2018-Jun-16 20:28N 46°11' W 123°50'0 0.0
2018-Jun-16 19:58N 46°11' W 123°50'5 9.4
2018-Jun-16 19:24N 46°14' W 123°43'0 0.1
2018-Jun-16 18:56N 46°14' W 123°43'0 0.0
2018-Jun-16 18:26N 46°14' W 123°43'0 0.1
2018-Jun-16 17:59N 46°14' W 123°43'510.5
2018-Jun-16 17:29N 46°11' W 123°50'0 0.0
2018-Jun-16 16:59N 46°11' W 123°50'0 0.2
2018-Jun-16 16:30N 46°11' W 123°49'1 1.7
2018-Jun-16 15:58N 46°12' W 123°48'0 0.0
2018-Jun-16 15:28N 46°12' W 123°48'0 0.0
2018-Jun-16 14:55N 46°12' W 123°48'0 0.0
2018-Jun-16 14:28N 46°12' W 123°48'0 0.0
2018-Jun-16 13:58N 46°12' W 123°48'0 0.0
2018-Jun-16 13:28N 46°12' W 123°48'0 0.0
2018-Jun-16 12:58N 46°12' W 123°48'0 0.0
2018-Jun-16 12:28N 46°12' W 123°48'0 0.0
2018-Jun-16 11:58N 46°12' W 123°48'0 0.0
2018-Jun-16 11:28N 46°12' W 123°48'0 0.0
2018-Jun-16 10:58N 46°12' W 123°48'0 0.0
2018-Jun-16 10:28N 46°12' W 123°48'0 0.0
2018-Jun-16 09:58N 46°12' W 123°48'0 0.0
2018-Jun-16 09:28N 46°12' W 123°48'0 0.0
2018-Jun-16 08:58N 46°12' W 123°48'0 0.0
2018-Jun-16 08:28N 46°12' W 123°48'0 0.0
2018-Jun-16 07:58N 46°12' W 123°48'0 0.0
2018-Jun-16 07:28N 46°12' W 123°48'0 0.0
2018-Jun-16 06:56N 46°12' W 123°48'0 0.0
2018-Jun-16 06:28N 46°12' W 123°48'0 0.0
2018-Jun-16 05:58N 46°12' W 123°48'0 0.0
2018-Jun-16 05:28N 46°12' W 123°48'0 0.0
2018-Jun-16 04:58N 46°12' W 123°48'0 0.0
2018-Jun-16 04:22N 46°12' W 123°48'0 0.0
2018-Jun-16 03:52N 46°12' W 123°48'0 0.0
2018-Jun-16 03:28N 46°12' W 123°48'0 0.0
2018-Jun-16 02:58N 46°12' W 123°48'0 0.0
2018-Jun-16 02:28N 46°12' W 123°48'0 0.0
2018-Jun-16 01:52N 46°12' W 123°48'0 0.0
2018-Jun-16 01:28N 46°12' W 123°48'0 0.0
2018-Jun-16 00:58N 46°12' W 123°48'0 0.0
2018-Jun-16 00:28N 46°12' W 123°48'0 0.0
2018-Jun-15 23:58N 46°12' W 123°48'0 0.0
2018-Jun-15 23:28N 46°12' W 123°48'0 0.0
2018-Jun-15 22:58N 46°12' W 123°48'0 0.0
2018-Jun-15 22:28N 46°12' W 123°48'0 0.0
2018-Jun-15 21:58N 46°12' W 123°48'0 0.0
2018-Jun-15 21:28N 46°12' W 123°48'0 0.0
2018-Jun-15 20:58N 46°12' W 123°48'0 0.0
2018-Jun-15 20:28N 46°12' W 123°48'1 2.1
2018-Jun-15 19:59N 46°11' W 123°50'1 2.6
2018-Jun-15 19:31N 46°12' W 123°48'0 0.1
2018-Jun-15 19:01N 46°12' W 123°48'0 0.2
2018-Jun-15 18:31N 46°12' W 123°49'3 5.6
2018-Jun-15 18:00N 46°14' W 123°45'0 0.1
2018-Jun-15 17:30N 46°14' W 123°45'3 6.8
2018-Jun-15 17:00N 46°12' W 123°49'1 1.4
2018-Jun-15 16:29N 46°12' W 123°49'1 1.6
2018-Jun-15 15:50N 46°11' W 123°50'0 0.0
2018-Jun-15 15:30N 46°11' W 123°50'1 1.8
2018-Jun-15 14:58N 46°12' W 123°48'0 0.0
2018-Jun-15 14:28N 46°12' W 123°48'0 0.0
2018-Jun-15 13:58N 46°12' W 123°48'0 0.0
2018-Jun-15 13:28N 46°12' W 123°48'0 0.0
2018-Jun-15 12:58N 46°12' W 123°48'0 0.0
2018-Jun-15 12:28N 46°12' W 123°48'0 0.0
2018-Jun-15 11:49N 46°12' W 123°48'0 0.0
2018-Jun-15 11:28N 46°12' W 123°48'0 0.0
2018-Jun-15 10:58N 46°12' W 123°48'0 0.0
2018-Jun-15 10:28N 46°12' W 123°48'0 0.0
2018-Jun-15 09:37N 46°12' W 123°48'0 0.0
2018-Jun-15 09:28N 46°12' W 123°48'0 0.0
2018-Jun-15 08:58N 46°12' W 123°48'0 0.0
2018-Jun-15 08:28N 46°12' W 123°48'0 0.0
2018-Jun-15 07:58N 46°12' W 123°48'0 0.0
2018-Jun-15 07:19N 46°12' W 123°48'0 0.0
2018-Jun-15 06:58N 46°12' W 123°48'0 0.0
2018-Jun-15 06:28N 46°12' W 123°48'0 0.0
2018-Jun-15 05:58N 46°12' W 123°48'0 0.0
2018-Jun-15 05:28N 46°12' W 123°48'0 0.0
2018-Jun-15 04:58N 46°12' W 123°48'0 0.0
2018-Jun-15 04:28N 46°12' W 123°48'0 0.0
2018-Jun-15 03:58N 46°12' W 123°48'0 0.0
2018-Jun-15 03:01N 46°12' W 123°48'0 0.0
2018-Jun-15 02:58N 46°12' W 123°48'0 0.0
2018-Jun-15 02:28N 46°12' W 123°48'0 0.0
2018-Jun-15 01:58N 46°12' W 123°48'0 0.0
2018-Jun-15 01:19N 46°12' W 123°48'0 0.0
2018-Jun-15 00:58N 46°12' W 123°48'0 0.0
2018-Jun-15 00:28N 46°12' W 123°48'0 0.0
2018-Jun-14 23:58N 46°12' W 123°48'0 0.0
2018-Jun-14 23:28N 46°12' W 123°48'0 0.0
2018-Jun-14 22:58N 46°12' W 123°48'0 0.0
2018-Jun-14 22:28N 46°12' W 123°48'0 0.0
2018-Jun-14 21:58N 46°12' W 123°48'0 0.0
2018-Jun-14 21:28N 46°12' W 123°48'0 0.0
2018-Jun-14 20:58N 46°12' W 123°48'0 0.0
2018-Jun-14 20:28N 46°12' W 123°48'0 0.0
2018-Jun-14 19:55N 46°12' W 123°48'0 0.0
2018-Jun-14 19:28N 46°12' W 123°48'0 0.0
2018-Jun-14 18:58N 46°12' W 123°48'0 0.0
2018-Jun-14 18:28N 46°12' W 123°48'0 0.0
2018-Jun-14 17:58N 46°12' W 123°48'0 0.0
2018-Jun-14 17:28N 46°12' W 123°48'0 0.0
2018-Jun-14 16:58N 46°12' W 123°48'0 0.0
2018-Jun-14 16:28N 46°12' W 123°48'0 0.0
2018-Jun-14 15:58N 46°12' W 123°48'0 0.0
2018-Jun-14 15:28N 46°12' W 123°48'0 0.0
2018-Jun-14 14:58N 46°12' W 123°48'0 0.0
2018-Jun-14 14:22N 46°12' W 123°48'0 0.0
2018-Jun-14 13:58N 46°12' W 123°48'0 0.0
2018-Jun-14 13:28N 46°12' W 123°48'0 0.0
2018-Jun-14 12:58N 46°12' W 123°48'0 0.0
2018-Jun-14 12:28N 46°12' W 123°48'0 0.0
2018-Jun-14 11:58N 46°12' W 123°48'0 0.0
2018-Jun-14 11:28N 46°12' W 123°48'0 0.0
2018-Jun-14 10:58N 46°12' W 123°48'0 0.0
2018-Jun-14 10:28N 46°12' W 123°48'0 0.0
2018-Jun-14 09:58N 46°12' W 123°48'0 0.0
2018-Jun-14 09:28N 46°12' W 123°48'0 0.0
2018-Jun-14 08:58N 46°12' W 123°48'0 0.0
2018-Jun-14 08:28N 46°12' W 123°48'0 0.0
2018-Jun-14 07:58N 46°12' W 123°48'0 0.0
2018-Jun-14 07:28N 46°12' W 123°48'0 0.0
2018-Jun-14 06:58N 46°12' W 123°48'0 0.0
2018-Jun-14 06:28N 46°12' W 123°48'0 0.0
2018-Jun-14 05:58N 46°12' W 123°48'0 0.0
2018-Jun-14 05:22N 46°12' W 123°48'0 0.0
2018-Jun-14 04:58N 46°12' W 123°48'0 0.0
2018-Jun-14 04:28N 46°12' W 123°48'0 0.0
2018-Jun-14 03:58N 46°12' W 123°48'0 0.0
2018-Jun-14 03:01N 46°12' W 123°48'0 0.0
2018-Jun-14 02:58N 46°12' W 123°48'0 0.0
2018-Jun-14 02:28N 46°12' W 123°48'0 0.0
2018-Jun-14 01:58N 46°12' W 123°48'0 0.0
2018-Jun-14 01:28N 46°12' W 123°48'0 0.0
2018-Jun-14 00:58N 46°12' W 123°48'0 0.0
2018-Jun-14 00:25N 46°12' W 123°48'1 2.4
2018-Jun-14 00:00N 46°11' W 123°50'1 0.9
2018-Jun-13 23:26N 46°12' W 123°50'1 1.3
2018-Jun-13 22:58N 46°11' W 123°50'1 2.3
2018-Jun-13 22:30N 46°12' W 123°48'1 1.4
2018-Jun-13 22:00N 46°12' W 123°49'1 1.2
2018-Jun-13 21:28N 46°11' W 123°50'1 2.7
2018-Jun-13 21:00N 46°12' W 123°48'0 0.1
2018-Jun-13 20:28N 46°12' W 123°48'0 0.0
2018-Jun-13 19:58N 46°12' W 123°48'0 0.1
2018-Jun-13 19:29N 46°12' W 123°48'3 7.0
2018-Jun-13 19:00N 46°14' W 123°44'0 0.0
2018-Jun-13 18:29N 46°14' W 123°44'0 0.1
2018-Jun-13 17:59N 46°14' W 123°44'4 7.4
2018-Jun-13 17:30N 46°12' W 123°48'3 4.2
2018-Jun-13 16:41N 46°14' W 123°44'0 0.2
2018-Jun-13 16:22N 46°14' W 123°44'411.3
2018-Jun-13 15:58N 46°11' W 123°50'0 0.0
2018-Jun-13 15:28N 46°11' W 123°50'1 2.1
2018-Jun-13 14:59N 46°12' W 123°48'0 0.0
2018-Jun-13 14:29N 46°12' W 123°48'0 0.0
2018-Jun-13 13:47N 46°12' W 123°48'0 0.0
2018-Jun-13 13:29N 46°12' W 123°48'0 0.0
2018-Jun-13 12:59N 46°12' W 123°48'0 0.0
2018-Jun-13 12:29N 46°12' W 123°48'0 0.0
2018-Jun-13 11:59N 46°12' W 123°48'0 0.0
2018-Jun-13 11:29N 46°12' W 123°48'0 0.0
2018-Jun-13 10:59N 46°12' W 123°48'0 0.0
2018-Jun-13 10:29N 46°12' W 123°48'0 0.0
2018-Jun-13 09:59N 46°12' W 123°48'0 0.0
2018-Jun-13 09:29N 46°12' W 123°48'0 0.0
2018-Jun-13 08:59N 46°12' W 123°48'0 0.0
2018-Jun-13 08:29N 46°12' W 123°48'0 0.0
2018-Jun-13 07:59N 46°12' W 123°48'0 0.0
2018-Jun-13 07:29N 46°12' W 123°48'0 0.0
2018-Jun-13 06:56N 46°12' W 123°48'0 0.0
2018-Jun-13 06:14N 46°12' W 123°48'0 0.0
2018-Jun-13 05:59N 46°12' W 123°48'0 0.0
2018-Jun-13 05:29N 46°12' W 123°48'0 0.0
2018-Jun-13 04:59N 46°12' W 123°48'0 0.0
2018-Jun-13 04:29N 46°12' W 123°48'  
Track history (hours):
 
Tides and Currents Weather Stations Pressure Air Temp Water Temp Dewpoint Dewpoint Depression Visibility Wind Speed Wind Dir Waves Ship Positions

Triumph II

Owner: ANCHORAGE LAUNCH SERVICE CO, PORTLAND, OR. More information available from US FCC via Universal Licensing System.

Last reported at 2018-Jun-23 04:16 UTC. Time now 2018-Jun-23 04:44 UTC.
Position N 46°12' W 123°48'.

Length 19 m.

Type: Passenger vessel. MMSI: 366970430.

Date/timePositionNaut miles runAvg speedWind from/ knotsBaromVisibWave heightAir tempDewpointWater temp
2018-Jun-23 04:16N 46°12' W 123°48'0 0.0
2018-Jun-23 03:55N 46°12' W 123°48'0 0.0
2018-Jun-23 03:28N 46°12' W 123°48'0 0.0
2018-Jun-23 02:43N 46°12' W 123°48'0 0.0
2018-Jun-23 02:28N 46°12' W 123°48'1 2.6
2018-Jun-23 02:01N 46°13' W 123°47'0 0.0
2018-Jun-23 01:30N 46°13' W 123°47'1 2.4
2018-Jun-23 00:58N 46°12' W 123°46'0 0.0
2018-Jun-23 00:28N 46°12' W 123°46'3 5.8
2018-Jun-23 00:01N 46°11' W 123°49'2 3.5
2018-Jun-22 23:30N 46°12' W 123°47'0 0.1
2018-Jun-22 23:00N 46°12' W 123°47'0 0.0
2018-Jun-22 22:30N 46°12' W 123°47'2 3.5
2018-Jun-22 21:58N 46°11' W 123°50'1 2.0
2018-Jun-22 21:28N 46°12' W 123°48'0 0.0
2018-Jun-22 20:58N 46°12' W 123°48'0 0.0
2018-Jun-22 20:28N 46°12' W 123°48'0 0.0
2018-Jun-22 19:58N 46°12' W 123°48'0 0.0
2018-Jun-22 19:28N 46°12' W 123°48'0 0.0
2018-Jun-22 18:58N 46°12' W 123°48'0 0.0
2018-Jun-22 18:28N 46°12' W 123°48'0 0.7
2018-Jun-22 18:00N 46°12' W 123°48'0 0.2
2018-Jun-22 17:28N 46°12' W 123°48'0 0.0
2018-Jun-22 16:58N 46°12' W 123°48'0 0.0
2018-Jun-22 16:30N 46°12' W 123°48'1 2.9
2018-Jun-22 16:00N 46°11' W 123°50'0 0.0
2018-Jun-22 15:30N 46°11' W 123°50'0 0.1
2018-Jun-22 15:00N 46°11' W 123°49'1 1.7
2018-Jun-22 14:28N 46°12' W 123°48'0 0.0
2018-Jun-22 13:58N 46°12' W 123°48'0 0.0
2018-Jun-22 13:28N 46°12' W 123°48'0 0.0
2018-Jun-22 12:58N 46°12' W 123°48'0 0.0
2018-Jun-22 12:26N 46°12' W 123°48'0 0.0
2018-Jun-22 11:58N 46°12' W 123°48'0 0.0
2018-Jun-22 11:28N 46°12' W 123°48'0 0.0
2018-Jun-22 10:58N 46°12' W 123°48'0 0.0
2018-Jun-22 10:28N 46°12' W 123°48'0 0.0
2018-Jun-22 09:58N 46°12' W 123°48'0 0.0
2018-Jun-22 09:28N 46°12' W 123°48'0 0.0
2018-Jun-22 08:58N 46°12' W 123°48'0 0.0
2018-Jun-22 08:22N 46°12' W 123°48'0 0.0
2018-Jun-22 07:58N 46°12' W 123°48'0 0.0
2018-Jun-22 07:28N 46°12' W 123°48'0 0.0
2018-Jun-22 06:58N 46°12' W 123°48'0 0.0
2018-Jun-22 06:28N 46°12' W 123°48'0 0.0
2018-Jun-22 05:43N 46°12' W 123°48'0 0.0
2018-Jun-22 05:28N 46°12' W 123°48'0 0.0
2018-Jun-22 04:58N 46°12' W 123°48'0 0.0
2018-Jun-22 04:28N 46°12' W 123°48'0 0.0
2018-Jun-22 03:58N 46°12' W 123°48'0 0.0
2018-Jun-22 03:28N 46°12' W 123°48'2 4.2
2018-Jun-22 03:00N 46°13' W 123°46'2 3.1
2018-Jun-22 02:28N 46°14' W 123°44'4 7.0
2018-Jun-22 01:58N 46°12' W 123°48'0 0.0
2018-Jun-22 01:28N 46°12' W 123°48'0 0.0
2018-Jun-22 00:58N 46°12' W 123°48'0 0.0
2018-Jun-22 00:28N 46°12' W 123°48'0 0.0
2018-Jun-21 23:58N 46°12' W 123°48'0 0.0
2018-Jun-21 23:28N 46°12' W 123°48'0 0.0
2018-Jun-21 22:58N 46°12' W 123°48'0 0.0
2018-Jun-21 22:28N 46°12' W 123°48'0 0.0
2018-Jun-21 21:58N 46°12' W 123°48'0 0.0
2018-Jun-21 21:28N 46°12' W 123°48'0 0.0
2018-Jun-21 20:58N 46°12' W 123°48'0 0.0
2018-Jun-21 20:28N 46°12' W 123°48'0 0.0
2018-Jun-21 19:37N 46°12' W 123°48'0 0.0
2018-Jun-21 19:28N 46°12' W 123°48'0 0.0
2018-Jun-21 18:58N 46°12' W 123°48'0 0.0
2018-Jun-21 18:28N 46°12' W 123°48'0 0.0
2018-Jun-21 17:58N 46°12' W 123°48'0 0.0
2018-Jun-21 17:28N 46°12' W 123°48'0 0.0
2018-Jun-21 16:58N 46°12' W 123°48'0 0.0
2018-Jun-21 16:28N 46°12' W 123°48'0 0.0
2018-Jun-21 15:58N 46°12' W 123°48'0 0.0
2018-Jun-21 15:28N 46°12' W 123°48'0 0.0
2018-Jun-21 14:58N 46°12' W 123°48'0 0.0
2018-Jun-21 14:28N 46°12' W 123°48'0 0.0
2018-Jun-21 13:58N 46°12' W 123°48'0 0.0
2018-Jun-21 13:28N 46°12' W 123°48'0 0.0
2018-Jun-21 12:58N 46°12' W 123°48'0 0.0
2018-Jun-21 12:28N 46°12' W 123°48'0 0.0
2018-Jun-21 11:43N 46°12' W 123°48'0 0.0
2018-Jun-21 11:28N 46°12' W 123°48'0 0.0
2018-Jun-21 10:58N 46°12' W 123°48'0 0.0
2018-Jun-21 10:28N 46°12' W 123°48'0 0.0
2018-Jun-21 09:58N 46°12' W 123°48'0 0.0
2018-Jun-21 09:28N 46°12' W 123°48'0 0.0
2018-Jun-21 08:49N 46°12' W 123°48'0 0.0
2018-Jun-21 08:28N 46°12' W 123°48'0 0.0
2018-Jun-21 07:58N 46°12' W 123°48'0 0.0
2018-Jun-21 07:28N 46°12' W 123°48'0 0.0
2018-Jun-21 06:58N 46°12' W 123°48'0 0.0
2018-Jun-21 06:28N 46°12' W 123°48'0 0.0
2018-Jun-21 05:46N 46°12' W 123°48'0 0.0
2018-Jun-21 05:28N 46°12' W 123°48'0 0.0
2018-Jun-21 04:58N 46°12' W 123°48'0 0.0
2018-Jun-21 04:28N 46°12' W 123°48'0 0.0
2018-Jun-21 03:58N 46°12' W 123°48'0 0.0
2018-Jun-21 01:49N 46°12' W 123°48'0 0.0
2018-Jun-21 00:40N 46°12' W 123°48'0 0.0
2018-Jun-21 00:11N 46°12' W 123°48'0 0.0
2018-Jun-20 23:46N 46°12' W 123°48'0 0.0
2018-Jun-20 23:19N 46°12' W 123°48'0 0.0
2018-Jun-20 22:49N 46°12' W 123°48'0 0.0
2018-Jun-20 22:22N 46°12' W 123°48'0 0.0
2018-Jun-20 21:55N 46°12' W 123°48'0 0.0
2018-Jun-20 21:28N 46°12' W 123°48'0 0.0
2018-Jun-20 20:34N 46°12' W 123°48'0 0.0
2018-Jun-20 20:22N 46°12' W 123°48'0 0.0
2018-Jun-20 19:49N 46°12' W 123°48'0 0.0
2018-Jun-20 19:13N 46°12' W 123°48'0 0.0
2018-Jun-20 18:55N 46°12' W 123°48'0 0.0
2018-Jun-20 18:07N 46°12' W 123°48'0 0.0
2018-Jun-20 17:55N 46°12' W 123°48'0 0.0
2018-Jun-20 17:20N 46°12' W 123°48'0 0.0
2018-Jun-20 16:58N 46°12' W 123°48'1 1.5
2018-Jun-20 16:13N 46°12' W 123°50'0 0.1
2018-Jun-20 15:36N 46°12' W 123°50'1 2.5
2018-Jun-20 15:23N 46°11' W 123°50'0 0.0
2018-Jun-20 14:13N 46°11' W 123°50'0 0.0
2018-Jun-20 13:58N 46°11' W 123°50'1 2.2
2018-Jun-20 13:30N 46°12' W 123°48'0 0.0
2018-Jun-20 12:02N 46°12' W 123°48'0 0.0
2018-Jun-20 11:59N 46°12' W 123°48'0 0.0
2018-Jun-20 11:24N 46°12' W 123°48'0 0.0
2018-Jun-20 10:20N 46°12' W 123°48'0 0.0
2018-Jun-20 09:56N 46°12' W 123°48'0 0.0
2018-Jun-20 09:29N 46°12' W 123°48'0 0.0
2018-Jun-20 08:59N 46°12' W 123°48'0 0.0
2018-Jun-20 08:29N 46°12' W 123°48'0 0.0
2018-Jun-20 07:59N 46°12' W 123°48'0 0.0
2018-Jun-20 07:29N 46°12' W 123°48'0 0.0
2018-Jun-20 06:59N 46°12' W 123°48'0 0.0
2018-Jun-20 05:35N 46°12' W 123°48'0 0.1
2018-Jun-20 05:29N 46°12' W 123°48'0 0.0
2018-Jun-20 04:56N 46°12' W 123°48'0 0.0
2018-Jun-20 04:29N 46°12' W 123°48'0 0.0
2018-Jun-20 03:59N 46°12' W 123°48'0 0.0
2018-Jun-20 02:59N 46°12' W 123°48'0 0.0
2018-Jun-20 02:29N 46°12' W 123°48'0 0.0
2018-Jun-20 01:59N 46°12' W 123°48'0 0.0
2018-Jun-20 01:29N 46°12' W 123°48'0 0.0
2018-Jun-20 00:59N 46°12' W 123°48'0 0.0
2018-Jun-20 00:17N 46°12' W 123°48'0 0.0
2018-Jun-19 23:59N 46°12' W 123°48'0 0.0
2018-Jun-19 23:29N 46°12' W 123°48'0 0.0
2018-Jun-19 22:59N 46°12' W 123°48'0 0.0
2018-Jun-19 22:29N 46°12' W 123°48'0 0.0
2018-Jun-19 21:59N 46°12' W 123°48'0 0.0
2018-Jun-19 21:08N 46°12' W 123°48'0 0.0
2018-Jun-19 20:53N 46°12' W 123°48'0 0.0
2018-Jun-19 20:29N 46°12' W 123°48'1 1.2
2018-Jun-19 19:58N 46°12' W 123°49'1 1.8
2018-Jun-19 19:30N 46°12' W 123°49'1 1.6
2018-Jun-19 18:58N 46°12' W 123°49'0 0.0
2018-Jun-19 18:29N 46°12' W 123°49'1 1.6
2018-Jun-19 17:45N 46°11' W 123°50'1 3.8
2018-Jun-19 17:29N 46°12' W 123°48'0 0.0
2018-Jun-19 16:59N 46°12' W 123°48'0 0.0
2018-Jun-19 16:05N 46°12' W 123°48'0 0.0
2018-Jun-19 15:59N 46°12' W 123°48'0 0.0
2018-Jun-19 15:14N 46°12' W 123°48'0 0.0
2018-Jun-19 14:59N 46°12' W 123°48'0 0.0
2018-Jun-19 14:20N 46°12' W 123°48'0 0.0
2018-Jun-19 13:59N 46°12' W 123°48'0 0.0
2018-Jun-19 13:29N 46°12' W 123°48'0 0.0
2018-Jun-19 12:59N 46°12' W 123°48'0 0.0
2018-Jun-19 12:29N 46°12' W 123°48'0 0.0
2018-Jun-19 11:59N 46°12' W 123°48'0 0.0
2018-Jun-19 11:26N 46°12' W 123°48'0 0.0
2018-Jun-19 10:59N 46°12' W 123°48'0 0.0
2018-Jun-19 10:29N 46°12' W 123°48'0 0.0
2018-Jun-19 09:59N 46°12' W 123°48'0 0.0
2018-Jun-19 09:29N 46°12' W 123°48'0 0.0
2018-Jun-19 08:56N 46°12' W 123°48'0 0.0
2018-Jun-19 08:29N 46°12' W 123°48'0 0.0
2018-Jun-19 07:56N 46°12' W 123°48'0 0.0
2018-Jun-19 07:29N 46°12' W 123°48'0 0.0
2018-Jun-19 06:56N 46°12' W 123°48'0 0.0
2018-Jun-19 06:29N 46°12' W 123°48'0 0.0
2018-Jun-19 05:59N 46°12' W 123°48'0 0.0
2018-Jun-19 05:29N 46°12' W 123°48'0 0.0
2018-Jun-19 04:59N 46°12' W 123°48'0 0.0
2018-Jun-19 04:29N 46°12' W 123°48'0 0.0
2018-Jun-19 03:59N 46°12' W 123°48'0 0.0
2018-Jun-19 03:29N 46°12' W 123°48'0 0.0
2018-Jun-19 02:56N 46°12' W 123°48'0 0.0
2018-Jun-19 02:29N 46°12' W 123°48'0 0.0
2018-Jun-19 01:59N 46°12' W 123°48'0 0.0
2018-Jun-19 01:29N 46°12' W 123°48'0 0.0
2018-Jun-19 00:59N 46°12' W 123°48'0 0.0
2018-Jun-19 00:29N 46°12' W 123°48'0 0.0
2018-Jun-18 23:59N 46°12' W 123°48'0 0.0
2018-Jun-18 23:27N 46°12' W 123°48'0 0.0
2018-Jun-18 22:59N 46°12' W 123°48'0 0.0
2018-Jun-18 22:29N 46°12' W 123°48'0 0.0
2018-Jun-18 21:59N 46°12' W 123°48'0 0.0
2018-Jun-18 21:29N 46°12' W 123°48'0 0.0
2018-Jun-18 20:50N 46°12' W 123°48'0 0.0
2018-Jun-18 20:29N 46°12' W 123°48'0 0.0
2018-Jun-18 19:59N 46°12' W 123°48'0 0.0
2018-Jun-18 19:29N 46°12' W 123°48'0 0.0
2018-Jun-18 18:59N 46°12' W 123°48'0 0.0
2018-Jun-18 18:23N 46°12' W 123°48'0 0.0
2018-Jun-18 17:54N 46°12' W 123°48'1 2.1
2018-Jun-18 17:21N 46°11' W 123°50'515.3
2018-Jun-18 17:00N 46°14' W 123°43'0 0.4
2018-Jun-18 16:28N 46°14' W 123°43'510.8
2018-Jun-18 15:58N 46°11' W 123°50'1 2.0
2018-Jun-18 15:28N 46°12' W 123°48'0 0.0
2018-Jun-18 14:58N 46°12' W 123°48'0 0.0
2018-Jun-18 14:28N 46°12' W 123°48'0 0.0
2018-Jun-18 13:58N 46°12' W 123°48'0 0.0
2018-Jun-18 13:28N 46°12' W 123°48'0 0.0
2018-Jun-18 12:58N 46°12' W 123°48'0 0.0
2018-Jun-18 12:28N 46°12' W 123°48'0 0.0
2018-Jun-18 11:58N 46°12' W 123°48'0 0.0
2018-Jun-18 11:28N 46°12' W 123°48'0 0.0
2018-Jun-18 10:58N 46°12' W 123°48'0 0.0
2018-Jun-18 10:28N 46°12' W 123°48'0 0.0
2018-Jun-18 09:58N 46°12' W 123°48'0 0.0
2018-Jun-18 09:20N 46°12' W 123°48'0 0.0
2018-Jun-18 08:58N 46°12' W 123°48'0 0.0
2018-Jun-18 08:28N 46°12' W 123°48'0 0.0
2018-Jun-18 07:58N 46°12' W 123°48'0 0.0
2018-Jun-18 07:28N 46°12' W 123°48'0 0.0
2018-Jun-18 06:58N 46°12' W 123°48'0 0.0
2018-Jun-18 06:28N 46°12' W 123°48'0 0.0
2018-Jun-18 05:55N 46°12' W 123°48'0 0.0
2018-Jun-18 05:28N 46°12' W 123°48'0 0.0
2018-Jun-18 04:55N 46°12' W 123°48'0 0.0
2018-Jun-18 04:25N 46°12' W 123°48'0 0.0
2018-Jun-18 03:58N 46°12' W 123°48'0 0.0
2018-Jun-18 03:28N 46°12' W 123°48'0 0.0
2018-Jun-18 02:58N 46°12' W 123°48'0 0.0
2018-Jun-18 02:01N 46°12' W 123°48'0 0.0
2018-Jun-18 01:43N 46°12' W 123°48'0 0.0
2018-Jun-18 01:28N 46°12' W 123°48'0 0.0
2018-Jun-18 00:58N 46°12' W 123°48'0 0.0
2018-Jun-18 00:28N 46°12' W 123°48'0 0.0
2018-Jun-17 23:58N 46°12' W 123°48'0 0.0
2018-Jun-17 23:28N 46°12' W 123°48'0 0.0
2018-Jun-17 22:46N 46°12' W 123°48'0 0.0
2018-Jun-17 22:29N 46°12' W 123°48'0 0.0
2018-Jun-17 21:59N 46°12' W 123°48'0 0.0
2018-Jun-17 20:16N 46°12' W 123°48'0 0.0
2018-Jun-17 19:59N 46°12' W 123°48'0 0.0
2018-Jun-17 19:28N 46°12' W 123°48'0 0.0
2018-Jun-17 18:59N 46°12' W 123°48'0 0.0
2018-Jun-17 18:29N 46°12' W 123°48'0 0.0
2018-Jun-17 17:59N 46°12' W 123°48'0 0.0
2018-Jun-17 17:28N 46°12' W 123°48'0 0.0
2018-Jun-17 16:59N 46°12' W 123°48'0 0.0
2018-Jun-17 16:26N 46°12' W 123°48'0 0.0
2018-Jun-17 15:56N 46°12' W 123°48'0 0.0
2018-Jun-17 15:26N 46°12' W 123°48'0 0.0
2018-Jun-17 14:59N 46°12' W 123°48'0 0.0
2018-Jun-17 14:28N 46°12' W 123°48'0 0.0
2018-Jun-17 13:59N 46°12' W 123°48'0 0.0
2018-Jun-17 13:29N 46°12' W 123°48'0 0.0
2018-Jun-17 12:59N 46°12' W 123°48'0 0.0
2018-Jun-17 12:28N 46°12' W 123°48'0 0.0
2018-Jun-17 11:59N 46°12' W 123°48'0 0.0
2018-Jun-17 11:29N 46°12' W 123°48'0 0.0
2018-Jun-17 10:59N 46°12' W 123°48'0 0.0
2018-Jun-17 10:29N 46°12' W 123°48'0 0.0
2018-Jun-17 09:44N 46°12' W 123°48'0 0.0
2018-Jun-17 09:29N 46°12' W 123°48'0 0.0
2018-Jun-17 08:59N 46°12' W 123°48'0 0.0
2018-Jun-17 08:29N 46°12' W 123°48'0 0.0
2018-Jun-17 07:59N 46°12' W 123°48'0 0.0
2018-Jun-17 07:29N 46°12' W 123°48'0 0.0
2018-Jun-17 06:59N 46°12' W 123°48'0 0.0
2018-Jun-17 06:29N 46°12' W 123°48'0 0.0
2018-Jun-17 05:59N 46°12' W 123°48'0 0.0
2018-Jun-17 05:26N 46°12' W 123°48'0 0.0
2018-Jun-17 04:59N 46°12' W 123°48'0 0.0
2018-Jun-17 04:29N 46°12' W 123°48'0 0.0
2018-Jun-17 03:59N 46°12' W 123°48'0 0.0
2018-Jun-17 03:26N 46°12' W 123°48'0 0.0
2018-Jun-17 02:59N 46°12' W 123°48'0 0.0
2018-Jun-17 02:29N 46°12' W 123°48'0 0.0
2018-Jun-17 01:57N 46°12' W 123°48'0 0.0
2018-Jun-17 01:30N 46°12' W 123°48'0 0.0
2018-Jun-17 01:00N 46°12' W 123°48'0 0.0
2018-Jun-17 00:28N 46°12' W 123°48'0 0.0
2018-Jun-16 23:58N 46°12' W 123°48'0 0.0
2018-Jun-16 23:28N 46°12' W 123°48'0 0.0
2018-Jun-16 22:58N 46°12' W 123°48'0 0.0
2018-Jun-16 22:28N 46°12' W 123°48'0 0.0
2018-Jun-16 21:58N 46°12' W 123°48'0 0.0
2018-Jun-16 21:28N 46°12' W 123°48'1 2.1
2018-Jun-16 20:59N 46°11' W 123°50'0 0.1
2018-Jun-16 20:28N 46°11' W 123°50'0 0.0
2018-Jun-16 19:58N 46°11' W 123°50'5 9.4
2018-Jun-16 19:24N 46°14' W 123°43'0 0.1
2018-Jun-16 18:56N 46°14' W 123°43'0 0.0
2018-Jun-16 18:26N 46°14' W 123°43'0 0.1
2018-Jun-16 17:59N 46°14' W 123°43'510.5
2018-Jun-16 17:29N 46°11' W 123°50'0 0.0
2018-Jun-16 16:59N 46°11' W 123°50'0 0.2
2018-Jun-16 16:30N 46°11' W 123°49'1 1.7
2018-Jun-16 15:58N 46°12' W 123°48'0 0.0
2018-Jun-16 15:28N 46°12' W 123°48'0 0.0
2018-Jun-16 14:55N 46°12' W 123°48'0 0.0
2018-Jun-16 14:28N 46°12' W 123°48'0 0.0
2018-Jun-16 13:58N 46°12' W 123°48'0 0.0
2018-Jun-16 13:28N 46°12' W 123°48'0 0.0
2018-Jun-16 12:58N 46°12' W 123°48'0 0.0
2018-Jun-16 12:28N 46°12' W 123°48'0 0.0
2018-Jun-16 11:58N 46°12' W 123°48'0 0.0
2018-Jun-16 11:28N 46°12' W 123°48'0 0.0
2018-Jun-16 10:58N 46°12' W 123°48'0 0.0
2018-Jun-16 10:28N 46°12' W 123°48'0 0.0
2018-Jun-16 09:58N 46°12' W 123°48'0 0.0
2018-Jun-16 09:28N 46°12' W 123°48'0 0.0
2018-Jun-16 08:58N 46°12' W 123°48'0 0.0
2018-Jun-16 08:28N 46°12' W 123°48'0 0.0
2018-Jun-16 07:58N 46°12' W 123°48'0 0.0
2018-Jun-16 07:28N 46°12' W 123°48'0 0.0
2018-Jun-16 06:56N 46°12' W 123°48'0 0.0
2018-Jun-16 06:28N 46°12' W 123°48'0 0.0
2018-Jun-16 05:58N 46°12' W 123°48'0 0.0
2018-Jun-16 05:28N 46°12' W 123°48'0 0.0
2018-Jun-16 04:58N 46°12' W 123°48'0 0.0
2018-Jun-16 04:22N 46°12' W 123°48'0 0.0
2018-Jun-16 03:52N 46°12' W 123°48'0 0.0
2018-Jun-16 03:28N 46°12' W 123°48'0 0.0
2018-Jun-16 02:58N 46°12' W 123°48'0 0.0
2018-Jun-16 02:28N 46°12' W 123°48'0 0.0
2018-Jun-16 01:52N 46°12' W 123°48'0 0.0
2018-Jun-16 01:28N 46°12' W 123°48'0 0.0
2018-Jun-16 00:58N 46°12' W 123°48'0 0.0
2018-Jun-16 00:28N 46°12' W 123°48'0 0.0
2018-Jun-15 23:58N 46°12' W 123°48'0 0.0
2018-Jun-15 23:28N 46°12' W 123°48'0 0.0
2018-Jun-15 22:58N 46°12' W 123°48'0 0.0
2018-Jun-15 22:28N 46°12' W 123°48'0 0.0
2018-Jun-15 21:58N 46°12' W 123°48'0 0.0
2018-Jun-15 21:28N 46°12' W 123°48'0 0.0
2018-Jun-15 20:58N 46°12' W 123°48'0 0.0
2018-Jun-15 20:28N 46°12' W 123°48'1 2.1
2018-Jun-15 19:59N 46°11' W 123°50'1 2.6
2018-Jun-15 19:31N 46°12' W 123°48'0 0.1
2018-Jun-15 19:01N 46°12' W 123°48'0 0.2
2018-Jun-15 18:31N 46°12' W 123°49'3 5.6
2018-Jun-15 18:00N 46°14' W 123°45'0 0.1
2018-Jun-15 17:30N 46°14' W 123°45'3 6.8
2018-Jun-15 17:00N 46°12' W 123°49'1 1.4
2018-Jun-15 16:29N 46°12' W 123°49'1 1.6
2018-Jun-15 15:50N 46°11' W 123°50'0 0.0
2018-Jun-15 15:30N 46°11' W 123°50'1 1.8
2018-Jun-15 14:58N 46°12' W 123°48'0 0.0
2018-Jun-15 14:28N 46°12' W 123°48'0 0.0
2018-Jun-15 13:58N 46°12' W 123°48'0 0.0
2018-Jun-15 13:28N 46°12' W 123°48'0 0.0
2018-Jun-15 12:58N 46°12' W 123°48'0 0.0
2018-Jun-15 12:28N 46°12' W 123°48'0 0.0
2018-Jun-15 11:49N 46°12' W 123°48'0 0.0
2018-Jun-15 11:28N 46°12' W 123°48'0 0.0
2018-Jun-15 10:58N 46°12' W 123°48'0 0.0
2018-Jun-15 10:28N 46°12' W 123°48'0 0.0
2018-Jun-15 09:37N 46°12' W 123°48'0 0.0
2018-Jun-15 09:28N 46°12' W 123°48'0 0.0
2018-Jun-15 08:58N 46°12' W 123°48'0 0.0
2018-Jun-15 08:28N 46°12' W 123°48'0 0.0
2018-Jun-15 07:58N 46°12' W 123°48'0 0.0
2018-Jun-15 07:19N 46°12' W 123°48'0 0.0
2018-Jun-15 06:58N 46°12' W 123°48'0 0.0
2018-Jun-15 06:28N 46°12' W 123°48'0 0.0
2018-Jun-15 05:58N 46°12' W 123°48'0 0.0
2018-Jun-15 05:28N 46°12' W 123°48'0 0.0
2018-Jun-15 04:58N 46°12' W 123°48'0 0.0
2018-Jun-15 04:28N 46°12' W 123°48'0 0.0
2018-Jun-15 03:58N 46°12' W 123°48'0 0.0
2018-Jun-15 03:01N 46°12' W 123°48'0 0.0
2018-Jun-15 02:58N 46°12' W 123°48'0 0.0
2018-Jun-15 02:28N 46°12' W 123°48'0 0.0
2018-Jun-15 01:58N 46°12' W 123°48'0 0.0
2018-Jun-15 01:19N 46°12' W 123°48'0 0.0
2018-Jun-15 00:58N 46°12' W 123°48'0 0.0
2018-Jun-15 00:28N 46°12' W 123°48'0 0.0
2018-Jun-14 23:58N 46°12' W 123°48'0 0.0
2018-Jun-14 23:28N 46°12' W 123°48'0 0.0
2018-Jun-14 22:58N 46°12' W 123°48'0 0.0
2018-Jun-14 22:28N 46°12' W 123°48'0 0.0
2018-Jun-14 21:58N 46°12' W 123°48'0 0.0
2018-Jun-14 21:28N 46°12' W 123°48'0 0.0
2018-Jun-14 20:58N 46°12' W 123°48'0 0.0
2018-Jun-14 20:28N 46°12' W 123°48'0 0.0
2018-Jun-14 19:55N 46°12' W 123°48'0 0.0
2018-Jun-14 19:28N 46°12' W 123°48'0 0.0
2018-Jun-14 18:58N 46°12' W 123°48'0 0.0
2018-Jun-14 18:28N 46°12' W 123°48'0 0.0
2018-Jun-14 17:58N 46°12' W 123°48'0 0.0
2018-Jun-14 17:28N 46°12' W 123°48'0 0.0
2018-Jun-14 16:58N 46°12' W 123°48'0 0.0
2018-Jun-14 16:28N 46°12' W 123°48'0 0.0
2018-Jun-14 15:58N 46°12' W 123°48'0 0.0
2018-Jun-14 15:28N 46°12' W 123°48'0 0.0
2018-Jun-14 14:58N 46°12' W 123°48'0 0.0
2018-Jun-14 14:22N 46°12' W 123°48'0 0.0
2018-Jun-14 13:58N 46°12' W 123°48'0 0.0
2018-Jun-14 13:28N 46°12' W 123°48'0 0.0
2018-Jun-14 12:58N 46°12' W 123°48'0 0.0
2018-Jun-14 12:28N 46°12' W 123°48'0 0.0
2018-Jun-14 11:58N 46°12' W 123°48'0 0.0
2018-Jun-14 11:28N 46°12' W 123°48'0 0.0
2018-Jun-14 10:58N 46°12' W 123°48'0 0.0
2018-Jun-14 10:28N 46°12' W 123°48'0 0.0
2018-Jun-14 09:58N 46°12' W 123°48'0 0.0
2018-Jun-14 09:28N 46°12' W 123°48'0 0.0
2018-Jun-14 08:58N 46°12' W 123°48'0 0.0
2018-Jun-14 08:28N 46°12' W 123°48'0 0.0
2018-Jun-14 07:58N 46°12' W 123°48'0 0.0
2018-Jun-14 07:28N 46°12' W 123°48'0 0.0
2018-Jun-14 06:58N 46°12' W 123°48'0 0.0
2018-Jun-14 06:28N 46°12' W 123°48'0 0.0
2018-Jun-14 05:58N 46°12' W 123°48'0 0.0
2018-Jun-14 05:22N 46°12' W 123°48'0 0.0
2018-Jun-14 04:58N 46°12' W 123°48'0 0.0
2018-Jun-14 04:28N 46°12' W 123°48'0 0.0
2018-Jun-14 03:58N 46°12' W 123°48'0 0.0
2018-Jun-14 03:01N 46°12' W 123°48'0 0.0
2018-Jun-14 02:58N 46°12' W 123°48'0 0.0
2018-Jun-14 02:28N 46°12' W 123°48'0 0.0
2018-Jun-14 01:58N 46°12' W 123°48'0 0.0
2018-Jun-14 01:28N 46°12' W 123°48'0 0.0
2018-Jun-14 00:58N 46°12' W 123°48'0 0.0
2018-Jun-14 00:25N 46°12' W 123°48'1 2.4
2018-Jun-14 00:00N 46°11' W 123°50'1 0.9
2018-Jun-13 23:26N 46°12' W 123°50'1 1.3
2018-Jun-13 22:58N 46°11' W 123°50'1 2.3
2018-Jun-13 22:30N 46°12' W 123°48'1 1.4
2018-Jun-13 22:00N 46°12' W 123°49'1 1.2
2018-Jun-13 21:28N 46°11' W 123°50'1 2.7
2018-Jun-13 21:00N 46°12' W 123°48'0 0.1
2018-Jun-13 20:28N 46°12' W 123°48'0 0.0
2018-Jun-13 19:58N 46°12' W 123°48'0 0.1
2018-Jun-13 19:29N 46°12' W 123°48'3 7.0
2018-Jun-13 19:00N 46°14' W 123°44'0 0.0
2018-Jun-13 18:29N 46°14' W 123°44'0 0.1
2018-Jun-13 17:59N 46°14' W 123°44'4 7.4
2018-Jun-13 17:30N 46°12' W 123°48'3 4.2
2018-Jun-13 16:41N 46°14' W 123°44'0 0.2
2018-Jun-13 16:22N 46°14' W 123°44'411.3
2018-Jun-13 15:58N 46°11' W 123°50'0 0.0
2018-Jun-13 15:28N 46°11' W 123°50'1 2.1
2018-Jun-13 14:59N 46°12' W 123°48'0 0.0
2018-Jun-13 14:29N 46°12' W 123°48'0 0.0
2018-Jun-13 13:47N 46°12' W 123°48'0 0.0
2018-Jun-13 13:29N 46°12' W 123°48'0 0.0
2018-Jun-13 12:59N 46°12' W 123°48'0 0.0
2018-Jun-13 12:29N 46°12' W 123°48'0 0.0
2018-Jun-13 11:59N 46°12' W 123°48'0 0.0
2018-Jun-13 11:29N 46°12' W 123°48'0 0.0
2018-Jun-13 10:59N 46°12' W 123°48'0 0.0
2018-Jun-13 10:29N 46°12' W 123°48'0 0.0
2018-Jun-13 09:59N 46°12' W 123°48'0 0.0
2018-Jun-13 09:29N 46°12' W 123°48'0 0.0
2018-Jun-13 08:59N 46°12' W 123°48'0 0.0
2018-Jun-13 08:29N 46°12' W 123°48'0 0.0
2018-Jun-13 07:59N 46°12' W 123°48'0 0.0
2018-Jun-13 07:29N 46°12' W 123°48'0 0.0
2018-Jun-13 06:56N 46°12' W 123°48'0 0.0
2018-Jun-13 06:14N 46°12' W 123°48'0 0.0
2018-Jun-13 05:59N 46°12' W 123°48'0 0.0
2018-Jun-13 05:29N 46°12' W 123°48'0 0.0
2018-Jun-13 04:59N 46°12' W 123°48'0 0.0
2018-Jun-13 04:29N 46°12' W 123°48'  

Dump ship's entire track history